sensor_id;sensor_type;location;lat;lon;timestamp;temperature;humidity
61016;DHT22;46902;52.920;6.536;2023-05-07T00:02:02;14.30;99.90
61016;DHT22;46902;52.920;6.536;2023-05-07T00:04:29;14.30;99.90
61016;DHT22;46902;52.920;6.536;2023-05-07T00:07:01;14.30;99.90
61016;DHT22;46902;52.920;6.536;2023-05-07T00:09:27;14.30;99.90
61016;DHT22;46902;52.920;6.536;2023-05-07T00:11:52;14.30;99.90
61016;DHT22;46902;52.920;6.536;2023-05-07T00:14:18;14.30;99.90
61016;DHT22;46902;52.920;6.536;2023-05-07T00:16:44;14.20;99.90
61016;DHT22;46902;52.920;6.536;2023-05-07T00:19:09;14.30;99.90
61016;DHT22;46902;52.920;6.536;2023-05-07T00:21:35;14.30;99.90
61016;DHT22;46902;52.920;6.536;2023-05-07T00:24:01;14.20;99.90
61016;DHT22;46902;52.920;6.536;2023-05-07T00:26:26;14.20;99.90
61016;DHT22;46902;52.920;6.536;2023-05-07T00:28:52;14.20;99.90
61016;DHT22;46902;52.920;6.536;2023-05-07T00:31:18;14.10;99.90
61016;DHT22;46902;52.920;6.536;2023-05-07T00:33:43;14.10;99.90
61016;DHT22;46902;52.920;6.536;2023-05-07T00:36:09;14.20;99.90
61016;DHT22;46902;52.920;6.536;2023-05-07T00:38:34;14.10;99.90
61016;DHT22;46902;52.920;6.536;2023-05-07T00:41:00;14.10;99.90
61016;DHT22;46902;52.920;6.536;2023-05-07T00:43:27;14.00;99.90
61016;DHT22;46902;52.920;6.536;2023-05-07T00:45:53;13.90;99.90
61016;DHT22;46902;52.920;6.536;2023-05-07T00:48:19;14.00;99.90
61016;DHT22;46902;52.920;6.536;2023-05-07T00:50:45;14.00;99.90
61016;DHT22;46902;52.920;6.536;2023-05-07T00:53:12;14.00;99.90
61016;DHT22;46902;52.920;6.536;2023-05-07T00:55:38;13.90;99.90
61016;DHT22;46902;52.920;6.536;2023-05-07T00:58:04;13.90;99.90
61016;DHT22;46902;52.920;6.536;2023-05-07T01:00:31;13.80;99.90
61016;DHT22;46902;52.920;6.536;2023-05-07T01:02:57;13.80;99.90
61016;DHT22;46902;52.920;6.536;2023-05-07T01:05:24;13.80;99.90
61016;DHT22;46902;52.920;6.536;2023-05-07T01:07:52;13.70;99.90
61016;DHT22;46902;52.920;6.536;2023-05-07T01:10:19;13.70;99.90
61016;DHT22;46902;52.920;6.536;2023-05-07T01:12:45;13.70;99.90
61016;DHT22;46902;52.920;6.536;2023-05-07T01:15:13;13.70;99.90
61016;DHT22;46902;52.920;6.536;2023-05-07T01:17:40;13.60;99.90
61016;DHT22;46902;52.920;6.536;2023-05-07T01:20:07;13.60;99.90
61016;DHT22;46902;52.920;6.536;2023-05-07T01:22:34;13.60;99.90
61016;DHT22;46902;52.920;6.536;2023-05-07T01:25:02;13.60;99.90
61016;DHT22;46902;52.920;6.536;2023-05-07T01:27:28;13.50;99.90
61016;DHT22;46902;52.920;6.536;2023-05-07T01:29:54;13.40;99.90
61016;DHT22;46902;52.920;6.536;2023-05-07T01:33:11;13.40;99.90
61016;DHT22;46902;52.920;6.536;2023-05-07T01:35:12;13.40;99.90
61016;DHT22;46902;52.920;6.536;2023-05-07T01:37:39;13.40;99.90
61016;DHT22;46902;52.920;6.536;2023-05-07T01:40:06;13.30;99.90
61016;DHT22;46902;52.920;6.536;2023-05-07T01:42:32;13.40;99.90
61016;DHT22;46902;52.920;6.536;2023-05-07T01:44:58;13.30;99.90
61016;DHT22;46902;52.920;6.536;2023-05-07T01:47:25;13.30;99.90
61016;DHT22;46902;52.920;6.536;2023-05-07T01:49:51;13.30;99.90
61016;DHT22;46902;52.920;6.536;2023-05-07T01:52:18;13.20;99.90
61016;DHT22;46902;52.920;6.536;2023-05-07T01:54:44;13.20;99.90
61016;DHT22;46902;52.920;6.536;2023-05-07T01:57:09;13.10;99.90
61016;DHT22;46902;52.920;6.536;2023-05-07T01:59:35;13.10;99.90
61016;DHT22;46902;52.920;6.536;2023-05-07T02:02:01;13.10;99.90
61016;DHT22;46902;52.920;6.536;2023-05-07T02:04:26;13.00;99.90
61016;DHT22;46902;52.920;6.536;2023-05-07T02:06:52;13.00;99.90
61016;DHT22;46902;52.920;6.536;2023-05-07T02:09:18;13.00;99.90
61016;DHT22;46902;52.920;6.536;2023-05-07T02:11:44;13.00;99.90
61016;DHT22;46902;52.920;6.536;2023-05-07T02:14:09;12.90;99.90
61016;DHT22;46902;52.920;6.536;2023-05-07T02:16:35;13.00;99.90
61016;DHT22;46902;52.920;6.536;2023-05-07T02:19:01;12.90;99.90
61016;DHT22;46902;52.920;6.536;2023-05-07T02:21:26;12.90;99.90
61016;DHT22;46902;52.920;6.536;2023-05-07T02:23:52;12.80;99.90
61016;DHT22;46902;52.920;6.536;2023-05-07T02:26:18;12.80;99.90
61016;DHT22;46902;52.920;6.536;2023-05-07T02:28:43;12.70;99.90
61016;DHT22;46902;52.920;6.536;2023-05-07T02:31:09;12.80;99.90
61016;DHT22;46902;52.920;6.536;2023-05-07T02:33:35;12.70;99.90
61016;DHT22;46902;52.920;6.536;2023-05-07T02:36:08;12.70;99.90
61016;DHT22;46902;52.920;6.536;2023-05-07T02:38:34;12.60;99.90
61016;DHT22;46902;52.920;6.536;2023-05-07T02:41:00;12.60;99.90
61016;DHT22;46902;52.920;6.536;2023-05-07T02:43:26;12.60;99.90
61016;DHT22;46902;52.920;6.536;2023-05-07T02:46:05;12.60;99.90
61016;DHT22;46902;52.920;6.536;2023-05-07T02:48:31;12.60;99.90
61016;DHT22;46902;52.920;6.536;2023-05-07T02:50:57;12.60;99.90
61016;DHT22;46902;52.920;6.536;2023-05-07T02:53:23;12.50;99.90
61016;DHT22;46902;52.920;6.536;2023-05-07T02:55:52;12.60;99.90
61016;DHT22;46902;52.920;6.536;2023-05-07T02:58:18;12.50;99.90
61016;DHT22;46902;52.920;6.536;2023-05-07T03:00:43;12.50;99.90
61016;DHT22;46902;52.920;6.536;2023-05-07T03:03:09;12.50;99.90
61016;DHT22;46902;52.920;6.536;2023-05-07T03:05:36;12.50;99.90
61016;DHT22;46902;52.920;6.536;2023-05-07T03:08:02;12.50;99.90
61016;DHT22;46902;52.920;6.536;2023-05-07T03:10:28;12.50;99.90
61016;DHT22;46902;52.920;6.536;2023-05-07T03:12:53;12.50;99.90
61016;DHT22;46902;52.920;6.536;2023-05-07T03:15:19;12.40;99.90
61016;DHT22;46902;52.920;6.536;2023-05-07T03:17:45;12.40;99.90
61016;DHT22;46902;52.920;6.536;2023-05-07T03:20:11;12.40;99.90
61016;DHT22;46902;52.920;6.536;2023-05-07T03:22:36;12.40;99.90
61016;DHT22;46902;52.920;6.536;2023-05-07T03:25:02;12.40;99.90
61016;DHT22;46902;52.920;6.536;2023-05-07T03:27:28;12.40;99.90
61016;DHT22;46902;52.920;6.536;2023-05-07T03:29:53;12.30;99.90
61016;DHT22;46902;52.920;6.536;2023-05-07T03:32:19;12.30;99.90
61016;DHT22;46902;52.920;6.536;2023-05-07T03:34:44;12.30;99.90
61016;DHT22;46902;52.920;6.536;2023-05-07T03:37:10;12.30;99.90
61016;DHT22;46902;52.920;6.536;2023-05-07T03:39:35;12.20;99.90
61016;DHT22;46902;52.920;6.536;2023-05-07T03:42:01;12.30;99.90
61016;DHT22;46902;52.920;6.536;2023-05-07T03:44:28;12.20;99.90
61016;DHT22;46902;52.920;6.536;2023-05-07T03:46:53;12.20;99.90
61016;DHT22;46902;52.920;6.536;2023-05-07T03:49:19;12.20;99.90
61016;DHT22;46902;52.920;6.536;2023-05-07T03:51:44;12.20;99.90
61016;DHT22;46902;52.920;6.536;2023-05-07T03:54:10;12.20;99.90
61016;DHT22;46902;52.920;6.536;2023-05-07T03:56:36;12.20;99.90
61016;DHT22;46902;52.920;6.536;2023-05-07T03:59:02;12.20;99.90
61016;DHT22;46902;52.920;6.536;2023-05-07T04:01:28;12.20;99.90
61016;DHT22;46902;52.920;6.536;2023-05-07T04:03:54;12.20;99.90
61016;DHT22;46902;52.920;6.536;2023-05-07T04:06:19;12.20;99.90
61016;DHT22;46902;52.920;6.536;2023-05-07T04:08:45;12.10;99.90
61016;DHT22;46902;52.920;6.536;2023-05-07T04:11:10;12.10;99.90
61016;DHT22;46902;52.920;6.536;2023-05-07T04:13:36;12.20;99.90
61016;DHT22;46902;52.920;6.536;2023-05-07T04:16:03;12.20;99.90
61016;DHT22;46902;52.920;6.536;2023-05-07T04:18:29;12.10;99.90
61016;DHT22;46902;52.920;6.536;2023-05-07T04:20:55;12.10;99.90
61016;DHT22;46902;52.920;6.536;2023-05-07T04:23:20;12.10;99.90
61016;DHT22;46902;52.920;6.536;2023-05-07T04:25:46;12.10;99.90
61016;DHT22;46902;52.920;6.536;2023-05-07T04:28:12;12.10;99.90
61016;DHT22;46902;52.920;6.536;2023-05-07T04:30:38;12.10;99.90
61016;DHT22;46902;52.920;6.536;2023-05-07T04:33:04;12.20;99.90
61016;DHT22;46902;52.920;6.536;2023-05-07T04:35:29;12.20;99.90
61016;DHT22;46902;52.920;6.536;2023-05-07T04:37:55;12.20;99.90
61016;DHT22;46902;52.920;6.536;2023-05-07T04:40:20;12.20;99.90
61016;DHT22;46902;52.920;6.536;2023-05-07T04:42:46;12.10;99.90
61016;DHT22;46902;52.920;6.536;2023-05-07T04:45:12;12.10;99.90
61016;DHT22;46902;52.920;6.536;2023-05-07T04:47:38;12.10;99.90
61016;DHT22;46902;52.920;6.536;2023-05-07T04:50:05;12.10;99.90
61016;DHT22;46902;52.920;6.536;2023-05-07T04:52:30;12.10;99.90
61016;DHT22;46902;52.920;6.536;2023-05-07T04:54:58;12.10;99.90
61016;DHT22;46902;52.920;6.536;2023-05-07T04:57:24;12.10;99.90
61016;DHT22;46902;52.920;6.536;2023-05-07T04:59:49;12.10;99.90
61016;DHT22;46902;52.920;6.536;2023-05-07T05:02:15;12.10;99.90
61016;DHT22;46902;52.920;6.536;2023-05-07T05:04:41;12.10;99.90
61016;DHT22;46902;52.920;6.536;2023-05-07T05:07:07;12.10;99.90
61016;DHT22;46902;52.920;6.536;2023-05-07T05:09:32;12.10;99.90
61016;DHT22;46902;52.920;6.536;2023-05-07T05:11:59;12.10;99.90
61016;DHT22;46902;52.920;6.536;2023-05-07T05:14:24;12.10;99.90
61016;DHT22;46902;52.920;6.536;2023-05-07T05:16:50;12.20;99.90
61016;DHT22;46902;52.920;6.536;2023-05-07T05:19:16;12.10;99.90
61016;DHT22;46902;52.920;6.536;2023-05-07T05:21:41;12.20;99.90
61016;DHT22;46902;52.920;6.536;2023-05-07T05:24:07;12.20;99.90
61016;DHT22;46902;52.920;6.536;2023-05-07T05:26:33;12.10;99.90
61016;DHT22;46902;52.920;6.536;2023-05-07T05:28:58;12.10;99.90
61016;DHT22;46902;52.920;6.536;2023-05-07T05:31:24;12.20;99.90
61016;DHT22;46902;52.920;6.536;2023-05-07T05:33:50;12.10;99.90
61016;DHT22;46902;52.920;6.536;2023-05-07T05:36:16;12.10;99.90
61016;DHT22;46902;52.920;6.536;2023-05-07T05:38:42;12.10;99.90
61016;DHT22;46902;52.920;6.536;2023-05-07T05:41:07;12.10;99.90
61016;DHT22;46902;52.920;6.536;2023-05-07T05:43:33;12.10;99.90
61016;DHT22;46902;52.920;6.536;2023-05-07T05:45:58;12.10;99.90
61016;DHT22;46902;52.920;6.536;2023-05-07T05:48:24;12.10;99.90
61016;DHT22;46902;52.920;6.536;2023-05-07T05:50:50;12.10;99.90
61016;DHT22;46902;52.920;6.536;2023-05-07T05:53:15;12.10;99.90
61016;DHT22;46902;52.920;6.536;2023-05-07T05:55:41;12.20;99.90
61016;DHT22;46902;52.920;6.536;2023-05-07T05:58:08;12.30;99.90
61016;DHT22;46902;52.920;6.536;2023-05-07T06:00:34;12.30;99.90
61016;DHT22;46902;52.920;6.536;2023-05-07T06:02:59;12.30;99.90
61016;DHT22;46902;52.920;6.536;2023-05-07T06:05:25;12.40;99.90
61016;DHT22;46902;52.920;6.536;2023-05-07T06:07:51;12.40;99.90
61016;DHT22;46902;52.920;6.536;2023-05-07T06:10:16;12.50;99.90
61016;DHT22;46902;52.920;6.536;2023-05-07T06:12:42;12.50;99.90
61016;DHT22;46902;52.920;6.536;2023-05-07T06:15:08;12.50;99.90
61016;DHT22;46902;52.920;6.536;2023-05-07T06:17:34;12.50;99.90
61016;DHT22;46902;52.920;6.536;2023-05-07T06:19:59;12.50;99.90
61016;DHT22;46902;52.920;6.536;2023-05-07T06:22:25;12.40;99.90
61016;DHT22;46902;52.920;6.536;2023-05-07T06:24:51;12.50;99.90
61016;DHT22;46902;52.920;6.536;2023-05-07T06:27:16;12.50;99.90
61016;DHT22;46902;52.920;6.536;2023-05-07T06:29:42;12.40;99.90
61016;DHT22;46902;52.920;6.536;2023-05-07T06:34:34;12.50;99.90
61016;DHT22;46902;52.920;6.536;2023-05-07T06:36:59;12.50;99.90
61016;DHT22;46902;52.920;6.536;2023-05-07T06:39:25;12.40;99.90
61016;DHT22;46902;52.920;6.536;2023-05-07T06:41:50;12.50;99.90
61016;DHT22;46902;52.920;6.536;2023-05-07T06:44:16;12.50;99.90
61016;DHT22;46902;52.920;6.536;2023-05-07T06:46:41;12.60;99.90
61016;DHT22;46902;52.920;6.536;2023-05-07T06:49:07;12.60;99.90
61016;DHT22;46902;52.920;6.536;2023-05-07T06:51:33;12.70;99.90
61016;DHT22;46902;52.920;6.536;2023-05-07T06:53:59;12.80;99.90
61016;DHT22;46902;52.920;6.536;2023-05-07T06:56:24;12.80;99.90
61016;DHT22;46902;52.920;6.536;2023-05-07T06:58:50;12.90;99.90
61016;DHT22;46902;52.920;6.536;2023-05-07T07:01:16;12.90;99.90
61016;DHT22;46902;52.920;6.536;2023-05-07T07:03:41;12.90;99.90
61016;DHT22;46902;52.920;6.536;2023-05-07T07:06:07;13.00;99.90
61016;DHT22;46902;52.920;6.536;2023-05-07T07:08:33;13.00;99.90
61016;DHT22;46902;52.920;6.536;2023-05-07T07:10:58;13.00;99.90
61016;DHT22;46902;52.920;6.536;2023-05-07T07:13:24;13.10;99.90
61016;DHT22;46902;52.920;6.536;2023-05-07T07:15:49;13.10;99.90
61016;DHT22;46902;52.920;6.536;2023-05-07T07:18:15;13.20;99.90
61016;DHT22;46902;52.920;6.536;2023-05-07T07:20:41;13.20;99.90
61016;DHT22;46902;52.920;6.536;2023-05-07T07:23:06;13.30;99.90
61016;DHT22;46902;52.920;6.536;2023-05-07T07:25:32;13.40;99.90
61016;DHT22;46902;52.920;6.536;2023-05-07T07:27:58;13.40;99.90
61016;DHT22;46902;52.920;6.536;2023-05-07T07:30:23;13.50;99.90
61016;DHT22;46902;52.920;6.536;2023-05-07T07:32:49;13.60;99.90
61016;DHT22;46902;52.920;6.536;2023-05-07T07:35:14;13.60;99.90
61016;DHT22;46902;52.920;6.536;2023-05-07T07:37:40;13.70;99.90
61016;DHT22;46902;52.920;6.536;2023-05-07T07:40:06;13.70;99.90
61016;DHT22;46902;52.920;6.536;2023-05-07T07:42:32;13.70;99.90
61016;DHT22;46902;52.920;6.536;2023-05-07T07:44:58;13.80;99.90
61016;DHT22;46902;52.920;6.536;2023-05-07T07:47:23;13.90;99.90
61016;DHT22;46902;52.920;6.536;2023-05-07T07:49:49;14.00;99.90
61016;DHT22;46902;52.920;6.536;2023-05-07T07:52:14;14.00;99.90
61016;DHT22;46902;52.920;6.536;2023-05-07T07:54:40;14.00;99.90
61016;DHT22;46902;52.920;6.536;2023-05-07T07:57:06;14.10;99.90
61016;DHT22;46902;52.920;6.536;2023-05-07T07:59:32;14.30;99.90
61016;DHT22;46902;52.920;6.536;2023-05-07T08:01:57;14.40;99.90
61016;DHT22;46902;52.920;6.536;2023-05-07T08:04:23;14.50;99.90
61016;DHT22;46902;52.920;6.536;2023-05-07T08:06:48;14.50;99.90
61016;DHT22;46902;52.920;6.536;2023-05-07T08:09:14;14.50;99.90
61016;DHT22;46902;52.920;6.536;2023-05-07T08:11:40;14.60;99.90
61016;DHT22;46902;52.920;6.536;2023-05-07T08:14:06;14.60;99.90
61016;DHT22;46902;52.920;6.536;2023-05-07T08:16:31;14.50;99.90
61016;DHT22;46902;52.920;6.536;2023-05-07T08:18:57;14.60;99.90
61016;DHT22;46902;52.920;6.536;2023-05-07T08:21:23;14.60;99.90
61016;DHT22;46902;52.920;6.536;2023-05-07T08:23:48;14.70;99.90
61016;DHT22;46902;52.920;6.536;2023-05-07T08:26:14;14.70;99.90
61016;DHT22;46902;52.920;6.536;2023-05-07T08:28:40;14.70;99.90
61016;DHT22;46902;52.920;6.536;2023-05-07T08:31:05;14.70;99.90
61016;DHT22;46902;52.920;6.536;2023-05-07T08:33:31;14.70;99.90
61016;DHT22;46902;52.920;6.536;2023-05-07T08:35:57;14.80;99.90
61016;DHT22;46902;52.920;6.536;2023-05-07T08:38:22;14.90;99.90
61016;DHT22;46902;52.920;6.536;2023-05-07T08:40:48;14.90;99.90
61016;DHT22;46902;52.920;6.536;2023-05-07T08:43:14;15.00;99.90
61016;DHT22;46902;52.920;6.536;2023-05-07T08:45:41;15.00;99.90
61016;DHT22;46902;52.920;6.536;2023-05-07T08:48:16;15.10;99.90
61016;DHT22;46902;52.920;6.536;2023-05-07T08:50:41;15.20;99.90
61016;DHT22;46902;52.920;6.536;2023-05-07T08:53:07;15.30;99.90
61016;DHT22;46902;52.920;6.536;2023-05-07T08:55:33;15.40;99.90
61016;DHT22;46902;52.920;6.536;2023-05-07T08:57:59;15.50;99.90
61016;DHT22;46902;52.920;6.536;2023-05-07T09:00:25;15.60;99.90
61016;DHT22;46902;52.920;6.536;2023-05-07T09:02:52;15.70;99.90
61016;DHT22;46902;52.920;6.536;2023-05-07T09:05:18;15.90;99.90
61016;DHT22;46902;52.920;6.536;2023-05-07T09:07:44;16.00;99.90
61016;DHT22;46902;52.920;6.536;2023-05-07T09:10:11;16.00;99.90
61016;DHT22;46902;52.920;6.536;2023-05-07T09:12:37;16.00;99.90
61016;DHT22;46902;52.920;6.536;2023-05-07T09:15:03;16.00;99.90
61016;DHT22;46902;52.920;6.536;2023-05-07T09:17:29;16.10;99.90
61016;DHT22;46902;52.920;6.536;2023-05-07T09:19:55;16.30;99.90
61016;DHT22;46902;52.920;6.536;2023-05-07T09:22:20;16.40;99.90
61016;DHT22;46902;52.920;6.536;2023-05-07T09:24:50;16.60;99.90
61016;DHT22;46902;52.920;6.536;2023-05-07T09:27:16;16.70;99.90
61016;DHT22;46902;52.920;6.536;2023-05-07T09:29:43;16.90;99.90
61016;DHT22;46902;52.920;6.536;2023-05-07T09:32:09;17.10;99.90
61016;DHT22;46902;52.920;6.536;2023-05-07T09:34:36;17.20;99.90
61016;DHT22;46902;52.920;6.536;2023-05-07T09:37:03;17.30;99.90
61016;DHT22;46902;52.920;6.536;2023-05-07T09:39:42;17.40;99.90
61016;DHT22;46902;52.920;6.536;2023-05-07T09:42:08;17.60;99.90
61016;DHT22;46902;52.920;6.536;2023-05-07T09:44:34;17.80;99.90
61016;DHT22;46902;52.920;6.536;2023-05-07T09:47:01;17.90;99.90
61016;DHT22;46902;52.920;6.536;2023-05-07T09:49:30;18.00;99.90
61016;DHT22;46902;52.920;6.536;2023-05-07T09:51:56;18.20;99.90
61016;DHT22;46902;52.920;6.536;2023-05-07T09:54:22;18.30;99.90
61016;DHT22;46902;52.920;6.536;2023-05-07T09:56:48;18.50;99.90
61016;DHT22;46902;52.920;6.536;2023-05-07T09:59:15;18.70;99.90
61016;DHT22;46902;52.920;6.536;2023-05-07T10:01:42;18.80;99.80
61016;DHT22;46902;52.920;6.536;2023-05-07T10:04:10;19.00;99.60
61016;DHT22;46902;52.920;6.536;2023-05-07T10:06:36;19.20;99.20
61016;DHT22;46902;52.920;6.536;2023-05-07T10:09:03;19.40;98.30
61016;DHT22;46902;52.920;6.536;2023-05-07T10:11:35;19.50;97.50
61016;DHT22;46902;52.920;6.536;2023-05-07T10:14:04;19.60;97.50
61016;DHT22;46902;52.920;6.536;2023-05-07T10:16:34;19.70;97.00
61016;DHT22;46902;52.920;6.536;2023-05-07T10:19:05;19.80;96.90
61016;DHT22;46902;52.920;6.536;2023-05-07T10:21:35;20.00;96.30
61016;DHT22;46902;52.920;6.536;2023-05-07T10:24:08;20.00;95.60
61016;DHT22;46902;52.920;6.536;2023-05-07T10:26:45;20.00;94.90
61016;DHT22;46902;52.920;6.536;2023-05-07T10:32:37;20.10;93.90
61016;DHT22;46902;52.920;6.536;2023-05-07T10:35:09;20.30;94.10
61016;DHT22;46902;52.920;6.536;2023-05-07T10:37:36;20.50;93.30
61016;DHT22;46902;52.920;6.536;2023-05-07T10:40:02;20.50;92.90
61016;DHT22;46902;52.920;6.536;2023-05-07T10:42:28;20.60;92.60
61016;DHT22;46902;52.920;6.536;2023-05-07T10:44:54;20.70;92.80
61016;DHT22;46902;52.920;6.536;2023-05-07T10:47:19;20.80;92.30
61016;DHT22;46902;52.920;6.536;2023-05-07T10:54:38;21.20;91.00
61016;DHT22;46902;52.920;6.536;2023-05-07T10:59:58;21.30;91.00
61016;DHT22;46902;52.920;6.536;2023-05-07T11:02:23;21.30;90.60
61016;DHT22;46902;52.920;6.536;2023-05-07T11:05:21;21.40;90.10
61016;DHT22;46902;52.920;6.536;2023-05-07T11:07:58;21.30;88.70
61016;DHT22;46902;52.920;6.536;2023-05-07T11:10:47;21.30;89.30
61016;DHT22;46902;52.920;6.536;2023-05-07T11:13:14;21.40;89.80
61016;DHT22;46902;52.920;6.536;2023-05-07T11:15:47;21.40;89.90
61016;DHT22;46902;52.920;6.536;2023-05-07T11:18:17;21.40;87.90
61016;DHT22;46902;52.920;6.536;2023-05-07T11:26:07;21.40;86.20
61016;DHT22;46902;52.920;6.536;2023-05-07T11:28:40;21.20;86.30
61016;DHT22;46902;52.920;6.536;2023-05-07T11:31:07;21.20;86.60
61016;DHT22;46902;52.920;6.536;2023-05-07T11:33:34;21.20;86.90
61016;DHT22;46902;52.920;6.536;2023-05-07T11:36:01;21.20;86.50
61016;DHT22;46902;52.920;6.536;2023-05-07T11:38:29;21.20;86.30
61016;DHT22;46902;52.920;6.536;2023-05-07T11:40:57;21.20;86.40
61016;DHT22;46902;52.920;6.536;2023-05-07T11:43:24;21.10;86.20
61016;DHT22;46902;52.920;6.536;2023-05-07T11:45:50;21.20;87.20
61016;DHT22;46902;52.920;6.536;2023-05-07T11:48:16;21.30;86.90
61016;DHT22;46902;52.920;6.536;2023-05-07T11:51:03;21.30;85.80
61016;DHT22;46902;52.920;6.536;2023-05-07T11:53:37;21.40;85.80
61016;DHT22;46902;52.920;6.536;2023-05-07T11:56:11;21.40;84.70
61016;DHT22;46902;52.920;6.536;2023-05-07T11:58:37;21.30;84.30
61016;DHT22;46902;52.920;6.536;2023-05-07T12:01:03;21.30;84.40
61016;DHT22;46902;52.920;6.536;2023-05-07T12:03:29;21.30;86.00
61016;DHT22;46902;52.920;6.536;2023-05-07T12:05:55;21.40;85.50
61016;DHT22;46902;52.920;6.536;2023-05-07T12:08:21;21.50;84.90
61016;DHT22;46902;52.920;6.536;2023-05-07T12:10:48;21.50;84.40
61016;DHT22;46902;52.920;6.536;2023-05-07T12:13:16;21.50;84.50
61016;DHT22;46902;52.920;6.536;2023-05-07T12:15:42;21.60;84.80
61016;DHT22;46902;52.920;6.536;2023-05-07T12:18:08;21.70;84.00
61016;DHT22;46902;52.920;6.536;2023-05-07T12:20:36;22.00;83.80
61016;DHT22;46902;52.920;6.536;2023-05-07T12:23:02;22.10;84.30
61016;DHT22;46902;52.920;6.536;2023-05-07T12:25:35;22.20;84.70
61016;DHT22;46902;52.920;6.536;2023-05-07T12:28:02;22.30;83.10
61016;DHT22;46902;52.920;6.536;2023-05-07T12:30:39;22.30;82.10
61016;DHT22;46902;52.920;6.536;2023-05-07T12:33:05;22.40;81.60
61016;DHT22;46902;52.920;6.536;2023-05-07T12:35:32;22.40;80.40
61016;DHT22;46902;52.920;6.536;2023-05-07T12:38:01;22.50;81.30
61016;DHT22;46902;52.920;6.536;2023-05-07T12:43:02;22.70;78.50
61016;DHT22;46902;52.920;6.536;2023-05-07T12:45:28;22.90;80.50
61016;DHT22;46902;52.920;6.536;2023-05-07T12:47:53;23.20;79.70
61016;DHT22;46902;52.920;6.536;2023-05-07T12:50:19;23.50;79.50
61016;DHT22;46902;52.920;6.536;2023-05-07T12:52:47;23.50;79.10
61016;DHT22;46902;52.920;6.536;2023-05-07T12:55:16;23.60;78.10
61016;DHT22;46902;52.920;6.536;2023-05-07T12:57:48;23.60;78.10
61016;DHT22;46902;52.920;6.536;2023-05-07T13:00:14;23.70;77.80
61016;DHT22;46902;52.920;6.536;2023-05-07T13:02:41;23.70;76.40
61016;DHT22;46902;52.920;6.536;2023-05-07T13:05:09;23.70;75.90
61016;DHT22;46902;52.920;6.536;2023-05-07T13:07:36;23.70;76.80
61016;DHT22;46902;52.920;6.536;2023-05-07T13:10:03;23.80;75.90
61016;DHT22;46902;52.920;6.536;2023-05-07T13:12:28;23.80;76.10
61016;DHT22;46902;52.920;6.536;2023-05-07T13:14:54;24.00;76.10
61016;DHT22;46902;52.920;6.536;2023-05-07T13:17:20;24.10;73.60
61016;DHT22;46902;52.920;6.536;2023-05-07T13:19:46;24.00;73.20
61016;DHT22;46902;52.920;6.536;2023-05-07T13:22:12;23.90;72.80
61016;DHT22;46902;52.920;6.536;2023-05-07T13:24:37;23.70;73.00
61016;DHT22;46902;52.920;6.536;2023-05-07T13:27:04;23.50;72.20
61016;DHT22;46902;52.920;6.536;2023-05-07T13:29:29;23.50;73.10
61016;DHT22;46902;52.920;6.536;2023-05-07T13:31:59;23.30;73.50
61016;DHT22;46902;52.920;6.536;2023-05-07T13:34:25;23.20;73.60
61016;DHT22;46902;52.920;6.536;2023-05-07T13:36:51;23.10;74.90
61016;DHT22;46902;52.920;6.536;2023-05-07T13:39:16;23.30;74.20
61016;DHT22;46902;52.920;6.536;2023-05-07T13:41:42;23.40;73.80
61016;DHT22;46902;52.920;6.536;2023-05-07T13:44:07;23.60;74.30
61016;DHT22;46902;52.920;6.536;2023-05-07T13:46:33;23.60;73.30
61016;DHT22;46902;52.920;6.536;2023-05-07T13:48:59;23.70;72.70
61016;DHT22;46902;52.920;6.536;2023-05-07T13:51:25;23.70;73.10
61016;DHT22;46902;52.920;6.536;2023-05-07T13:53:51;23.60;72.70
61016;DHT22;46902;52.920;6.536;2023-05-07T13:56:18;23.40;72.20
61016;DHT22;46902;52.920;6.536;2023-05-07T13:58:43;23.10;72.50
61016;DHT22;46902;52.920;6.536;2023-05-07T14:01:09;23.00;73.80
61016;DHT22;46902;52.920;6.536;2023-05-07T14:03:34;22.80;73.30
61016;DHT22;46902;52.920;6.536;2023-05-07T14:06:03;22.60;73.50
61016;DHT22;46902;52.920;6.536;2023-05-07T14:08:28;22.50;73.90
61016;DHT22;46902;52.920;6.536;2023-05-07T14:10:54;22.20;74.30
61016;DHT22;46902;52.920;6.536;2023-05-07T14:13:20;22.20;74.30
61016;DHT22;46902;52.920;6.536;2023-05-07T14:15:45;22.00;75.10
61016;DHT22;46902;52.920;6.536;2023-05-07T14:18:15;21.90;74.80
61016;DHT22;46902;52.920;6.536;2023-05-07T14:20:41;21.80;75.90
61016;DHT22;46902;52.920;6.536;2023-05-07T14:23:11;21.70;76.10
61016;DHT22;46902;52.920;6.536;2023-05-07T14:25:37;21.70;76.20
61016;DHT22;46902;52.920;6.536;2023-05-07T14:28:03;21.60;77.50
61016;DHT22;46902;52.920;6.536;2023-05-07T14:30:28;21.60;78.10
61016;DHT22;46902;52.920;6.536;2023-05-07T14:32:54;21.50;77.80
61016;DHT22;46902;52.920;6.536;2023-05-07T14:35:20;21.50;77.60
61016;DHT22;46902;52.920;6.536;2023-05-07T14:37:45;21.50;78.80
61016;DHT22;46902;52.920;6.536;2023-05-07T14:40:11;21.40;79.10
61016;DHT22;46902;52.920;6.536;2023-05-07T14:42:37;21.30;78.90
61016;DHT22;46902;52.920;6.536;2023-05-07T14:45:02;21.20;79.10
61016;DHT22;46902;52.920;6.536;2023-05-07T14:47:28;21.10;79.50
61016;DHT22;46902;52.920;6.536;2023-05-07T14:49:54;21.10;79.90
61016;DHT22;46902;52.920;6.536;2023-05-07T14:52:20;21.10;80.10
61016;DHT22;46902;52.920;6.536;2023-05-07T14:54:46;21.10;79.10
61016;DHT22;46902;52.920;6.536;2023-05-07T14:57:12;21.10;79.00
61016;DHT22;46902;52.920;6.536;2023-05-07T14:59:40;21.00;79.20
61016;DHT22;46902;52.920;6.536;2023-05-07T15:02:06;21.10;79.90
61016;DHT22;46902;52.920;6.536;2023-05-07T15:04:33;21.10;80.40
61016;DHT22;46902;52.920;6.536;2023-05-07T15:06:59;21.30;81.20
61016;DHT22;46902;52.920;6.536;2023-05-07T15:09:25;21.40;80.40
61016;DHT22;46902;52.920;6.536;2023-05-07T15:11:51;21.50;79.50
61016;DHT22;46902;52.920;6.536;2023-05-07T15:14:16;21.60;80.10
61016;DHT22;46902;52.920;6.536;2023-05-07T15:16:42;21.50;78.50
61016;DHT22;46902;52.920;6.536;2023-05-07T15:19:08;21.50;78.50
61016;DHT22;46902;52.920;6.536;2023-05-07T15:21:33;21.50;77.80
61016;DHT22;46902;52.920;6.536;2023-05-07T15:24:01;21.40;77.20
61016;DHT22;46902;52.920;6.536;2023-05-07T15:26:27;21.40;77.40
61016;DHT22;46902;52.920;6.536;2023-05-07T15:28:52;21.40;77.50
61016;DHT22;46902;52.920;6.536;2023-05-07T15:31:18;21.50;77.50
61016;DHT22;46902;52.920;6.536;2023-05-07T15:33:44;21.60;77.50
61016;DHT22;46902;52.920;6.536;2023-05-07T15:36:10;21.80;77.80
61016;DHT22;46902;52.920;6.536;2023-05-07T15:38:36;21.90;77.40
61016;DHT22;46902;52.920;6.536;2023-05-07T15:41:01;22.00;76.80
61016;DHT22;46902;52.920;6.536;2023-05-07T15:43:27;22.10;76.00
61016;DHT22;46902;52.920;6.536;2023-05-07T15:45:53;22.00;76.40
61016;DHT22;46902;52.920;6.536;2023-05-07T15:48:18;22.10;76.30